createdAt,value
2018-08-18T00:02:22.631Z,67.02
2018-08-18T00:04:49.919Z,67.35
2018-08-18T00:07:17.130Z,67.75
2018-08-18T00:09:44.359Z,68.03
2018-08-18T00:12:17.306Z,68.09
2018-08-18T00:14:44.575Z,68.02
2018-08-18T00:17:12.667Z,67.91
2018-08-18T00:22:30.520Z,68.01
2018-08-18T00:24:58.733Z,68.27
2018-08-18T00:27:26.588Z,68.77
2018-08-18T00:29:58.387Z,68.23
2018-08-18T00:32:25.606Z,68.83
2018-08-18T00:34:53.799Z,68.83
2018-08-18T00:37:22.242Z,68.56
2018-08-18T00:39:49.518Z,68.80
2018-08-18T00:42:16.731Z,68.49
2018-08-18T00:44:43.946Z,68.86
2018-08-18T00:47:11.229Z,68.80
2018-08-18T00:49:38.448Z,69.55
2018-08-18T00:52:05.875Z,69.80
2018-08-18T00:54:33.127Z,69.20
2018-08-18T00:57:03.371Z,70.08
2018-08-18T00:59:37.092Z,69.71
2018-08-18T01:02:04.448Z,69.78
2018-08-18T01:04:32.145Z,69.75
2018-08-18T01:06:59.403Z,69.94
2018-08-18T01:09:27.650Z,69.98
2018-08-18T01:11:54.914Z,69.77
2018-08-18T01:14:22.268Z,69.90
2018-08-18T01:16:51.690Z,70.12
2018-08-18T01:19:19.933Z,70.26
2018-08-18T01:22:01.870Z,70.22
2018-08-18T01:24:29.103Z,70.19
2018-08-18T01:26:56.745Z,69.76
2018-08-18T01:29:23.979Z,69.67
2018-08-18T01:31:51.212Z,69.83
2018-08-18T01:34:18.461Z,69.62
2018-08-18T01:36:45.705Z,70.02
2018-08-18T01:39:13.993Z,69.76
2018-08-18T01:41:41.246Z,69.54
2018-08-18T01:44:13.914Z,69.96
2018-08-18T01:46:41.772Z,69.78
2018-08-18T01:49:33.630Z,69.19
2018-08-18T01:52:03.043Z,69.63
2018-08-18T01:54:30.579Z,69.91
2018-08-18T01:57:03.502Z,69.07
2018-08-18T01:59:30.759Z,68.82
2018-08-18T02:01:58.038Z,68.40
2018-08-18T02:04:25.245Z,68.30
2018-08-18T02:06:53.486Z,68.24
2018-08-18T02:09:20.728Z,67.83
2018-08-18T02:11:51.566Z,67.47
2018-08-18T02:14:20.254Z,67.20
2018-08-18T02:16:48.632Z,66.61
2018-08-18T02:19:16.903Z,66.83
2018-08-18T02:21:44.126Z,66.65
2018-08-18T02:24:12.490Z,66.39
2018-08-18T02:26:39.948Z,66.44
2018-08-18T02:29:07.162Z,66.46
2018-08-18T02:31:34.388Z,66.55
2018-08-18T02:34:01.584Z,66.39
2018-08-18T02:36:28.916Z,66.82
2018-08-18T02:38:57.288Z,67.22
2018-08-18T02:41:25.784Z,66.46
2018-08-18T02:43:53.516Z,66.71
2018-08-18T02:46:28.202Z,67.04
2018-08-18T02:48:55.418Z,67.09
2018-08-18T02:51:22.674Z,67.04
2018-08-18T02:53:49.939Z,67.08
2018-08-18T02:56:17.170Z,67.21
2018-08-18T02:58:48.951Z,67.04
2018-08-18T03:01:16.186Z,67.49
2018-08-18T03:03:43.386Z,67.55
2018-08-18T03:06:11.480Z,67.16
2018-08-18T03:08:38.811Z,67.04
2018-08-18T03:11:06.401Z,66.75
2018-08-18T03:13:33.644Z,66.51
2018-08-18T03:16:02.259Z,66.54
2018-08-18T03:18:35.848Z,66.50
2018-08-18T03:21:04.135Z,66.42
2018-08-18T03:23:32.943Z,66.55
2018-08-18T03:26:00.198Z,65.97
2018-08-18T03:28:27.434Z,65.84
2018-08-18T03:30:55.315Z,65.87
2018-08-18T03:33:22.573Z,65.98
2018-08-18T03:35:49.773Z,66.05
2018-08-18T03:38:17.068Z,65.92
2018-08-18T03:40:44.309Z,65.93
2018-08-18T03:43:11.524Z,66.09
2018-08-18T03:45:38.726Z,66.26
2018-08-18T03:48:05.942Z,66.40
2018-08-18T03:50:45.638Z,66.46
2018-08-18T03:53:15.674Z,66.56
2018-08-18T03:55:43.092Z,66.84
2018-08-18T03:58:10.338Z,66.68
2018-08-18T04:00:37.987Z,66.51
2018-08-18T04:03:05.230Z,66.21
2018-08-18T04:05:32.422Z,66.13
2018-08-18T04:07:59.654Z,66.20
2018-08-18T04:10:26.892Z,66.15
2018-08-18T04:12:54.143Z,65.87
2018-08-18T04:15:21.352Z,65.88
2018-08-18T04:17:48.605Z,66.05
2018-08-18T04:20:15.847Z,65.89
2018-08-18T04:22:43.439Z,65.68
2018-08-18T04:25:10.690Z,65.86
2018-08-18T04:27:39.717Z,65.94
2018-08-18T04:30:11.874Z,65.92
2018-08-18T04:33:04.306Z,66.09
2018-08-18T04:35:32.310Z,65.92
2018-08-18T04:38:01.411Z,65.54
2018-08-18T04:40:28.717Z,65.65
2018-08-18T04:42:56.922Z,65.74
2018-08-18T04:45:24.176Z,65.99
2018-08-18T04:47:51.451Z,65.89
2018-08-18T04:50:19.289Z,65.82
2018-08-18T04:52:46.520Z,65.86
2018-08-18T04:55:14.593Z,65.73
2018-08-18T04:57:41.810Z,65.91
2018-08-18T05:00:10.567Z,65.45
2018-08-18T05:02:42.755Z,65.48
2018-08-18T05:05:10.416Z,65.52
2018-08-18T05:07:43.840Z,65.18
2018-08-18T05:10:11.575Z,65.26
2018-08-18T05:12:38.812Z,65.47
2018-08-18T05:15:06.109Z,65.39
2018-08-18T05:17:33.400Z,65.36
2018-08-18T05:20:14.209Z,65.39
2018-08-18T05:22:41.866Z,65.09
2018-08-18T05:25:09.118Z,65.09
2018-08-18T05:27:36.395Z,64.89
2018-08-18T05:30:04.171Z,64.82
2018-08-18T05:32:31.401Z,64.74
2018-08-18T05:34:58.681Z,64.63
2018-08-18T05:37:25.871Z,64.39
2018-08-18T05:39:53.106Z,64.46
2018-08-18T05:42:20.346Z,64.26
2018-08-18T05:44:47.598Z,64.33
2018-08-18T05:47:15.071Z,64.48
2018-08-18T05:49:42.306Z,63.71
2018-08-18T05:52:09.569Z,63.84
2018-08-18T05:54:36.836Z,63.29
2018-08-18T05:57:05.190Z,63.36
2018-08-18T05:59:33.930Z,62.96
2018-08-18T06:02:01.229Z,62.70
2018-08-18T06:04:28.462Z,62.29
2018-08-18T06:06:55.690Z,61.77
2018-08-18T06:09:23.326Z,61.92
2018-08-18T06:11:50.627Z,61.46
2018-08-18T06:14:18.351Z,61.24
2018-08-18T06:16:46.080Z,60.74
2018-08-18T06:19:13.426Z,60.48
2018-08-18T06:21:40.739Z,60.16
2018-08-18T06:24:08.110Z,60.00
2018-08-18T06:26:35.542Z,59.58
2018-08-18T06:29:02.857Z,59.32
2018-08-18T06:31:30.136Z,59.44
2018-08-18T06:33:57.406Z,59.73
2018-08-18T06:36:24.759Z,59.24
2018-08-18T06:38:51.987Z,58.97
2018-08-18T06:41:19.276Z,58.55
2018-08-18T06:43:46.503Z,58.80
2018-08-18T06:46:13.807Z,57.67
2018-08-18T06:48:41.030Z,57.83
2018-08-18T06:51:08.286Z,57.51
2018-08-18T06:53:41.279Z,58.27
2018-08-18T06:56:09.009Z,57.01
2018-08-18T06:58:36.536Z,57.38
2018-08-18T07:01:04.117Z,57.18
2018-08-18T07:03:32.948Z,56.30
2018-08-18T07:06:00.487Z,57.02
2018-08-18T07:08:28.114Z,56.72
2018-08-18T07:10:55.370Z,56.14
2018-08-18T07:13:22.602Z,56.25
2018-08-18T07:15:50.252Z,55.96
2018-08-18T07:18:17.563Z,55.71
2018-08-18T07:20:44.796Z,55.31
2018-08-18T07:23:12.042Z,54.06
2018-08-18T07:25:46.068Z,52.45
2018-08-18T07:28:13.387Z,50.40
2018-08-18T07:30:40.619Z,49.47
2018-08-18T07:33:07.878Z,49.30
2018-08-18T07:35:35.144Z,48.98
2018-08-18T07:38:02.463Z,48.68
2018-08-18T07:40:35.363Z,48.47
2018-08-18T07:43:05.790Z,47.42
2018-08-18T07:45:34.532Z,46.44
2018-08-18T07:48:03.895Z,46.00
2018-08-18T07:50:31.627Z,45.62
2018-08-18T07:52:59.179Z,45.71
2018-08-18T07:55:30.764Z,45.48
2018-08-18T07:57:59.447Z,43.25
2018-08-18T08:00:30.598Z,42.58
2018-08-18T08:02:58.830Z,42.75
2018-08-18T08:05:26.077Z,43.54
2018-08-18T08:07:53.364Z,43.18
2018-08-18T08:10:21.008Z,42.28
2018-08-18T08:12:48.459Z,41.02
2018-08-18T08:15:16.054Z,40.77
2018-08-18T08:17:44.035Z,41.35
2018-08-18T08:20:11.475Z,41.90
2018-08-18T08:22:38.760Z,43.57
2018-08-18T08:25:07.048Z,44.72
2018-08-18T08:27:34.322Z,44.88
2018-08-18T08:30:01.558Z,44.54
2018-08-18T08:32:28.793Z,46.14
2018-08-18T08:34:56.071Z,47.31
2018-08-18T08:37:23.384Z,47.20
2018-08-18T08:39:50.604Z,48.63
2018-08-18T08:42:17.858Z,48.06
2018-08-18T08:44:45.087Z,47.51
2018-08-18T08:47:14.255Z,48.31
2018-08-18T08:49:41.550Z,48.80
2018-08-18T08:52:08.827Z,49.04
2018-08-18T08:54:37.319Z,49.63
2018-08-18T08:57:07.092Z,49.69
2018-08-18T08:59:35.579Z,49.12
2018-08-18T09:02:03.174Z,48.74
2018-08-18T09:04:30.977Z,49.13
2018-08-18T09:06:58.267Z,50.13
2018-08-18T09:09:25.838Z,48.79
2018-08-18T09:11:53.207Z,48.43
2018-08-18T09:14:20.691Z,48.01
2018-08-18T09:16:47.980Z,47.85
2018-08-18T09:19:15.337Z,46.81
2018-08-18T09:21:49.290Z,47.86
2018-08-18T09:24:16.551Z,46.67
2018-08-18T09:26:49.444Z,46.91
2018-08-18T09:29:16.694Z,48.14
2018-08-18T09:31:44.650Z,49.03
2018-08-18T09:34:12.149Z,48.40
2018-08-18T09:36:39.915Z,46.75
2018-08-18T09:39:09.135Z,47.02
2018-08-18T09:41:37.242Z,46.37
2018-08-18T09:44:04.505Z,44.42
2018-08-18T09:46:31.785Z,43.20
2018-08-18T09:48:59.125Z,43.08
2018-08-18T09:51:26.336Z,42.81
2018-08-18T09:53:53.691Z,42.33
2018-08-18T09:56:20.943Z,41.59
2018-08-18T09:58:48.175Z,42.85
2018-08-18T10:01:15.434Z,43.82
2018-08-18T10:03:42.659Z,44.70
2018-08-18T10:06:09.916Z,45.01
2018-08-18T10:08:37.162Z,45.34
2018-08-18T10:11:04.507Z,45.56
2018-08-18T10:13:31.734Z,45.74
2018-08-18T10:15:59.054Z,45.64
2018-08-18T10:18:27.850Z,45.96
2018-08-18T10:20:55.067Z,45.29
2018-08-18T10:23:22.313Z,44.88
2018-08-18T10:25:49.548Z,45.01
2018-08-18T10:28:17.478Z,44.65
2018-08-18T10:30:44.711Z,45.12
2018-08-18T10:33:11.971Z,45.50
2018-08-18T10:35:39.240Z,45.47
2018-08-18T10:38:06.600Z,45.15
2018-08-18T10:40:33.862Z,45.06
2018-08-18T10:43:03.131Z,44.89
2018-08-18T10:45:30.354Z,44.60
2018-08-18T10:47:57.615Z,44.40
2018-08-18T10:51:38.618Z,45.23
2018-08-18T10:54:05.988Z,43.61
2018-08-18T10:56:33.982Z,42.05
2018-08-18T10:59:16.407Z,40.87
2018-08-18T11:01:59.360Z,39.52
2018-08-18T11:04:28.443Z,37.22
2018-08-18T11:06:57.256Z,36.04
2018-08-18T11:09:25.109Z,34.50
2018-08-18T11:11:52.582Z,33.93
2018-08-18T11:14:20.266Z,34.66
2018-08-18T11:16:47.574Z,35.55
2018-08-18T11:19:14.827Z,37.76
2018-08-18T11:21:42.104Z,38.31
2018-08-18T11:24:09.366Z,38.60
2018-08-18T11:26:38.453Z,40.19
2018-08-18T11:29:15.268Z,39.82
2018-08-18T11:31:42.690Z,41.04
2018-08-18T11:34:09.964Z,41.10
2018-08-18T11:36:41.882Z,41.40
2018-08-18T11:39:09.171Z,41.72
2018-08-18T11:41:36.443Z,41.63
2018-08-18T11:44:03.740Z,41.28
2018-08-18T11:46:35.516Z,41.59
2018-08-18T11:49:03.170Z,40.48
2018-08-18T11:51:35.224Z,39.49
2018-08-18T11:54:05.554Z,37.49
2018-08-18T11:56:38.052Z,36.07
2018-08-18T11:59:08.717Z,35.27
2018-08-18T12:01:39.313Z,34.58
2018-08-18T12:04:06.844Z,33.98
2018-08-18T12:06:34.195Z,33.15
2018-08-18T12:09:02.158Z,32.44
2018-08-18T12:11:29.914Z,32.35
2018-08-18T12:13:57.718Z,33.90
2018-08-18T12:16:25.007Z,34.30
2018-08-18T12:18:54.359Z,34.97
2018-08-18T12:21:21.639Z,33.86
2018-08-18T12:23:48.911Z,35.21
2018-08-18T12:26:19.272Z,35.68
2018-08-18T12:28:47.722Z,37.56
2018-08-18T12:31:17.872Z,36.40
2018-08-18T12:33:45.760Z,36.06
2018-08-18T12:36:13.080Z,34.47
2018-08-18T12:38:43.972Z,34.95
2018-08-18T12:41:11.322Z,33.80
2018-08-18T12:43:39.830Z,34.24
2018-08-18T12:46:10.214Z,35.02
2018-08-18T12:48:40.498Z,36.77
2018-08-18T12:51:09.287Z,36.64
2018-08-18T12:53:42.304Z,37.33
2018-08-18T12:56:11.545Z,37.48
2018-08-18T12:58:39.094Z,37.85
2018-08-18T13:01:06.175Z,38.44
2018-08-18T13:03:33.414Z,37.84
2018-08-18T13:06:00.739Z,37.95
2018-08-18T13:08:27.986Z,36.93
2018-08-18T13:10:55.578Z,35.64
2018-08-18T13:13:23.050Z,36.20
2018-08-18T13:15:51.239Z,37.33
2018-08-18T13:18:18.690Z,37.34
2018-08-18T13:20:47.712Z,37.07
2018-08-18T13:23:16.944Z,36.20
2018-08-18T13:25:44.187Z,35.99
2018-08-18T13:28:11.442Z,35.36
2018-08-18T13:30:38.691Z,35.33
2018-08-18T13:33:05.972Z,35.26
2018-08-18T13:35:33.239Z,35.19
2018-08-18T13:38:00.467Z,34.75
2018-08-18T13:40:28.297Z,35.72
2018-08-18T13:42:55.506Z,36.17
2018-08-18T13:45:46.511Z,35.19
2018-08-18T13:48:13.778Z,35.33
2018-08-18T13:50:41.465Z,35.61
2018-08-18T13:53:08.783Z,35.64
2018-08-18T13:55:37.765Z,35.92
2018-08-18T13:58:05.451Z,35.44
2018-08-18T14:00:32.716Z,35.99
2018-08-18T14:03:00.154Z,36.72
2018-08-18T14:05:28.731Z,35.48
2018-08-18T14:07:59.385Z,35.65
2018-08-18T14:10:26.606Z,35.67
2018-08-18T14:12:54.876Z,35.34
2018-08-18T14:15:22.240Z,35.61
2018-08-18T14:17:59.452Z,35.92
2018-08-18T14:20:26.714Z,36.44
2018-08-18T14:22:58.796Z,36.28
2018-08-18T14:25:26.012Z,36.54
2018-08-18T14:27:58.975Z,37.72
2018-08-18T14:30:26.240Z,37.73
2018-08-18T14:32:53.464Z,38.16
2018-08-18T14:35:20.674Z,38.04
2018-08-18T14:37:47.944Z,37.40
2018-08-18T14:40:16.644Z,37.22
2018-08-18T14:42:44.332Z,37.16
2018-08-18T14:45:14.107Z,38.16
2018-08-18T14:47:41.412Z,38.28
2018-08-18T14:50:21.023Z,37.71
2018-08-18T14:52:48.295Z,38.99
2018-08-18T14:55:15.916Z,39.18
2018-08-18T14:57:48.926Z,38.64
2018-08-18T15:00:16.164Z,39.55
2018-08-18T15:02:43.428Z,40.75
2018-08-18T15:05:10.677Z,40.54
2018-08-18T15:07:43.410Z,39.99
2018-08-18T15:10:20.937Z,40.93
2018-08-18T15:12:48.246Z,40.30
2018-08-18T15:15:15.474Z,39.53
2018-08-18T15:17:42.754Z,39.80
2018-08-18T15:20:09.971Z,41.11
2018-08-18T15:22:37.212Z,40.68
2018-08-18T15:25:04.474Z,40.38
2018-08-18T15:27:31.708Z,40.78
2018-08-18T15:29:58.918Z,40.61
2018-08-18T15:32:26.740Z,40.71
2018-08-18T15:34:53.942Z,40.93
2018-08-18T15:37:21.163Z,40.80
2018-08-18T15:39:48.383Z,40.96
2018-08-18T15:42:15.639Z,41.43
2018-08-18T15:44:55.417Z,41.14
2018-08-18T15:47:22.671Z,40.84
2018-08-18T15:49:49.890Z,40.83
2018-08-18T15:52:18.156Z,41.22
2018-08-18T15:54:45.435Z,41.48
2018-08-18T15:57:12.671Z,42.60
2018-08-18T15:59:39.943Z,43.20
2018-08-18T16:02:07.224Z,43.56
2018-08-18T16:04:34.446Z,42.41
2018-08-18T16:07:01.671Z,42.83
2018-08-18T16:09:28.911Z,42.74
2018-08-18T16:11:56.112Z,42.85
2018-08-18T16:14:23.349Z,42.85
2018-08-18T16:16:58.887Z,43.04
2018-08-18T16:19:26.206Z,43.34
2018-08-18T16:21:53.431Z,42.93
2018-08-18T16:24:31.607Z,43.53
2018-08-18T16:26:59.875Z,43.02
2018-08-18T16:29:27.138Z,42.79
2018-08-18T16:32:26.611Z,43.08
2018-08-18T16:35:00.744Z,43.04
2018-08-18T16:37:28.310Z,43.13
2018-08-18T16:39:56.036Z,43.45
2018-08-18T16:42:23.255Z,43.88
2018-08-18T16:44:50.663Z,44.12
2018-08-18T16:47:18.063Z,44.85
2018-08-18T16:49:45.364Z,45.32
2018-08-18T16:52:13.545Z,46.22
2018-08-18T16:54:40.765Z,46.44
2018-08-18T16:57:08.052Z,46.71
2018-08-18T16:59:35.882Z,46.61
2018-08-18T17:02:03.888Z,46.31
2018-08-18T17:04:31.999Z,46.97
2018-08-18T17:07:00.048Z,47.29
2018-08-18T17:09:37.457Z,47.50
2018-08-18T17:12:16.037Z,46.83
2018-08-18T17:14:43.330Z,47.98
2018-08-18T17:17:11.480Z,48.26
2018-08-18T17:19:39.256Z,48.54
2018-08-18T17:22:07.519Z,48.71
2018-08-18T17:24:34.783Z,49.25
2018-08-18T17:27:02.136Z,49.22
2018-08-18T17:29:34.068Z,49.62
2018-08-18T17:32:02.057Z,49.98
2018-08-18T17:34:29.314Z,50.05
2018-08-18T17:36:56.583Z,50.26
2018-08-18T17:39:23.845Z,50.34
2018-08-18T17:41:51.124Z,50.39
2018-08-18T17:44:18.416Z,50.81
2018-08-18T17:46:51.621Z,50.54
2018-08-18T17:49:19.310Z,50.74
2018-08-18T17:51:56.995Z,50.99
2018-08-18T17:54:24.308Z,51.82
2018-08-18T17:56:51.679Z,52.04
2018-08-18T17:59:19.174Z,52.10
2018-08-18T18:02:00.378Z,52.38
2018-08-18T18:04:28.810Z,52.40
2018-08-18T18:06:57.195Z,52.78
2018-08-18T18:09:25.838Z,52.62
2018-08-18T18:11:53.242Z,52.65
2018-08-18T18:14:20.696Z,52.74
2018-08-18T18:16:48.109Z,52.78
2018-08-18T18:19:15.389Z,53.18
2018-08-18T18:21:43.512Z,53.56
2018-08-18T18:24:11.350Z,53.43
2018-08-18T18:26:39.153Z,53.71
2018-08-18T18:29:07.064Z,54.19
2018-08-18T18:31:34.307Z,54.74
2018-08-18T18:34:02.446Z,54.76
2018-08-18T18:36:30.344Z,55.40
2018-08-18T18:38:57.666Z,55.41
2018-08-18T18:41:25.180Z,55.69
2018-08-18T18:43:56.730Z,55.79
2018-08-18T18:46:24.025Z,55.66
2018-08-18T18:48:51.321Z,55.65
2018-08-18T18:51:18.575Z,56.24
2018-08-18T18:53:48.403Z,56.36
2018-08-18T18:56:15.667Z,56.27
2018-08-18T18:58:42.924Z,56.72
2018-08-18T19:01:10.201Z,56.54
2018-08-18T19:03:37.451Z,56.83
2018-08-18T19:06:04.744Z,57.21
2018-08-18T19:08:32.255Z,57.56
2018-08-18T19:11:02.225Z,57.84
2018-08-18T19:13:29.434Z,58.03
2018-08-18T19:15:56.759Z,58.29
2018-08-18T19:18:23.951Z,58.50
2018-08-18T19:20:51.209Z,59.14
2018-08-18T19:23:19.614Z,58.49
2018-08-18T19:25:48.047Z,59.37
2018-08-18T19:28:22.718Z,59.22
2018-08-18T19:30:49.974Z,58.66
2018-08-18T19:33:17.836Z,58.35
2018-08-18T19:35:50.054Z,58.02
2018-08-18T19:38:18.243Z,58.61
2018-08-18T19:40:46.785Z,59.96
2018-08-18T19:43:22.572Z,59.64
2018-08-18T19:45:50.283Z,59.98
2018-08-18T19:48:19.110Z,59.80
2018-08-18T19:50:53.667Z,60.23
2018-08-18T19:53:21.183Z,60.37
2018-08-18T19:55:49.272Z,60.74
2018-08-18T19:58:16.483Z,60.72
2018-08-18T20:00:43.755Z,60.55
2018-08-18T20:03:13.014Z,61.34
2018-08-18T20:05:40.308Z,61.11
2018-08-18T20:08:07.556Z,61.48
2018-08-18T20:10:38.528Z,61.42
2018-08-18T20:13:05.734Z,61.71
2018-08-18T20:15:32.940Z,61.04
2018-08-18T20:18:00.985Z,61.36
2018-08-18T20:20:28.183Z,61.29
2018-08-18T20:22:55.420Z,61.08
2018-08-18T20:25:22.662Z,60.99
2018-08-18T20:27:49.937Z,61.24
2018-08-18T20:30:17.146Z,61.72
2018-08-18T20:32:44.387Z,61.53
2018-08-18T20:35:11.636Z,61.58
2018-08-18T20:37:38.881Z,61.79
2018-08-18T20:40:07.800Z,61.86
2018-08-18T20:42:39.475Z,61.89
2018-08-18T20:45:09.139Z,62.15
2018-08-18T20:47:36.410Z,62.03
2018-08-18T20:50:05.383Z,62.14
2018-08-18T20:52:32.655Z,62.25
2018-08-18T20:55:00.293Z,62.48
2018-08-18T20:57:27.560Z,62.73
2018-08-18T20:59:54.772Z,62.74
2018-08-18T21:02:22.026Z,63.05
2018-08-18T21:04:55.645Z,63.97
2018-08-18T21:07:23.044Z,63.71
2018-08-18T21:09:50.286Z,64.06
2018-08-18T21:12:17.555Z,64.71
2018-08-18T21:14:44.791Z,64.77
2018-08-18T21:17:12.050Z,64.35
2018-08-18T21:19:39.254Z,63.90
2018-08-18T21:22:07.280Z,63.79
2018-08-18T21:24:34.509Z,63.29
2018-08-18T21:27:01.784Z,63.35
2018-08-18T21:29:29.013Z,63.16
2018-08-18T21:31:56.250Z,63.63
2018-08-18T21:34:23.470Z,63.55
2018-08-18T21:36:50.703Z,63.47
2018-08-18T21:39:17.947Z,63.44
2018-08-18T21:41:46.383Z,63.46
2018-08-18T21:44:14.325Z,63.70
2018-08-18T21:46:42.025Z,63.58
2018-08-18T21:49:09.963Z,64.02
2018-08-18T21:51:37.188Z,64.20
2018-08-18T21:54:04.479Z,64.18
2018-08-18T21:56:40.128Z,65.78
2018-08-18T21:59:09.010Z,66.43
2018-08-18T22:01:36.290Z,66.75
2018-08-18T22:04:03.934Z,66.89
2018-08-18T22:06:31.266Z,67.10
2018-08-18T22:09:15.652Z,66.94
2018-08-18T22:11:43.059Z,67.08
2018-08-18T22:14:13.533Z,67.04
2018-08-18T22:16:49.196Z,67.16
2018-08-18T22:19:18.909Z,67.43
2018-08-18T22:21:46.171Z,67.81
2018-08-18T22:24:13.410Z,68.25
2018-08-18T22:26:40.638Z,68.52
2018-08-18T22:29:07.889Z,68.95
2018-08-18T22:31:35.147Z,68.90
2018-08-18T22:34:03.632Z,69.25
2018-08-18T22:36:32.090Z,69.51
2018-08-18T22:38:59.764Z,69.56
2018-08-18T22:41:26.992Z,69.01
2018-08-18T22:43:54.895Z,69.22
2018-08-18T22:46:22.416Z,68.93
2018-08-18T22:48:49.697Z,68.84
2018-08-18T22:51:17.174Z,69.35
2018-08-18T22:53:46.570Z,69.82
2018-08-18T22:56:13.772Z,70.03
2018-08-18T22:58:50.947Z,69.85
2018-08-18T23:01:18.140Z,70.37
2018-08-18T23:03:45.490Z,70.30
2018-08-18T23:06:12.753Z,69.58
2018-08-18T23:08:39.989Z,69.56
2018-08-18T23:11:07.199Z,69.70
2018-08-18T23:13:34.426Z,70.30
2018-08-18T23:16:01.702Z,70.22
2018-08-18T23:18:28.963Z,70.49
2018-08-18T23:20:56.152Z,70.84
2018-08-18T23:23:23.392Z,70.60
2018-08-18T23:25:52.588Z,70.33
2018-08-18T23:28:19.799Z,70.51
2018-08-18T23:30:47.000Z,70.50
2018-08-18T23:33:14.246Z,70.21
2018-08-18T23:35:41.455Z,70.40
2018-08-18T23:38:08.732Z,71.27
2018-08-18T23:40:35.952Z,71.61
2018-08-18T23:43:03.300Z,71.68
2018-08-18T23:45:37.110Z,71.90
2018-08-18T23:48:05.670Z,72.39
2018-08-18T23:50:35.491Z,72.73
2018-08-18T23:53:05.258Z,72.05
2018-08-18T23:55:32.475Z,72.25
2018-08-18T23:58:00.574Z,72.47
